New Season SmallBallMall
 
 
 
Home Forum Leagues Seasons Search Help
 

 
Puppers (PUP)
very long time ago
 
ID#: 716707 since: 2/7/2019 Honor Rating: 7.7
 

Player Pos Games AB Hits AVG 1B 2B 3B HR RBI SO ERA
Bob Bobbington P 59 236 28 .118 27 1 1 0 17 826 3.12
Smith Smithington C 59 267 157 .588 113 10 2 39 110 0 -
Carl Carlington 2B 0 0 0 .000 0 0 0 0 0 0 -
Todd Toddington SS 59 249 112 .449 113 21 3 6 52 0 -
Fran Frannerson RF 59 278 162 .582 122 11 7 33 91 0 -
Lonnie Lonnerson 1B 0 0 0 .000 0 0 0 0 0 0 -
Harold Haroldson LF 59 265 112 .422 112 8 2 1 41 0 -
Jimmy Jammerson CF 59 271 144 .531 108 28 1 12 75 0 -
Paul Paulerson 1B 59 231 100 .432 67 29 12 1 41 0 -
Ronnie Ronnerstadt SS 0 0 0 .000 0 0 0 0 0 0 -
Kristoph Kristoph 3B 59 281 114 .405 93 14 7 9 62 0 -
Shrap Shrapnel 2B 59 259 109 .420 93 14 7 1 45 0 -

Big League Ranking: 106 W/L: .791 GP: 48
  Pro League Ranking: 25 W/L: .388 GP: 18
   To view full league stats, click on the league name.
 
Recent Games
League Date Opponent Id Letters Score W/L
BIG 7/7/19 Wolves 9684 RVA 4:8 W
BIG 7/8/19 Stans of Stantown 9987 SoS 1:7 L
BIG 7/8/19 pirates 9991 msa 5:1 W
BIG 7/8/19 pirates 9998 msa 7:4 W
BIG 7/8/19 pirates 10002 msa 13:0 W
BIG 7/9/19 pirates 10020 msa 6:2 W
BIG 7/9/19 pirates 10021 msa 5:0 W
BIG 7/9/19 pirates 10037 msa 3:4 L
BIG 7/9/19 pirates 10125 msa 3:4 L
BIG 7/9/19 pirates 10138 msa 3:2 W
BIG 7/9/19 pirates 10151 msa 8:2 W
BIG 7/9/19 pirates 10158 msa 10:0 W
BIG 7/9/19 pirates 10166 msa 11:3 W
BIG 7/9/19 pirates 10175 msa 10:9 W
BIG 7/9/19 pirates 10179 msa 3:2 W
BIG 7/9/19 pirates 10182 msa 7:0 W
BIG 7/10/19 pirates 10207 msa 10:0 W
BIG 7/10/19 pirates 10208 msa 6:2 W
BIG 7/11/19 pirates 10669 msa 1:2 L
BIG 7/12/19 pirates 10995 msa 1:0 W
BIG 7/12/19 Onett Anvils 11194 OA 3:2 W
BIG 7/12/19 pirates 11297 msa 3:0 W
BIG 7/13/19 pirates 11494 msa 7:4 W
BIG 7/13/19 pirates 11514 msa 12:4 W
BIG 7/14/19 pirates 12042 msa 6:4 W
BIG 7/15/19 pirates 12144 msa 3:0 W
BIG 7/15/19 pirates 12335 msa 6:2 W
BIG 7/15/19 Smexy Pepe 12362 786 28:3 L
BIG 7/15/19 Individual Ones 12516 Ind 1:8 L
BIG 7/16/19 pirates 12831 msa 6:2 W
BIG 7/16/19 pirates 12896 msa 9:1 W
BIG 7/17/19 Power Brigade 13290 Tex 5:3 L
BIG 7/18/19 Tasty Burgers 13441 TB 3:2 L
BIG 7/18/19 Kansas Kings 13483 KK 4:3 L
BIG 7/19/19 pirates 13794 msa 6:1 W
BIG 7/19/19 pirates 13958 msa 6:4 W
BIG 7/19/19 Pimp My Side 14122 PMS 1:2 W
BIG 7/20/19 Factorisation Masters 14138 FM 3:5 W
BIG 7/20/19 Stans of Stantown 14329 SoS 1:3 W
BIG 7/20/19 Individual Ones 14345 Ind 5:4 L
ProLeague Games
5 n/a Knights 4846 KN n/a ?
5 n/a Demons 4854 DMN n/a ?
5 7/19/19 Hasta la Vistas 4862 HLV 3:6 L
5 n/a Satsuki 4870 94 n/a ?
5 7/18/19 Baby Penguins 4878 BP 3:6 L
5 n/a Resting 4886 (Q) n/a ?
5 n/a Deep Space Niners 4894 DS9 n/a ?
5 n/a Howlin Wolfs 4902 *H* n/a ?
5 n/a 12 Rounds 4910 550 n/a ?
5 7/15/19 St Louis Blues 4919 S*C 2:22 W
5 7/15/19 Sun Dragons 4920 SuN 4:5 W
5 7/15/19 Larks Tongue in Aspic (SYR) 4921 MRO 6:4 L
5 7/11/19 The Reds 4922 233 10:5 L
5 7/15/19 JIM'S DIAMONDS 4923 JR 4:7 W
5 7/14/19 Demons VT 4924 DEM 0:74 W
5 7/12/19 UNCLE SAMS MISGUIDED CHILDREN 4925 CC4 0:31 W
5 7/14/19 Rainy Cats and Dogs 4926 RCD 0:32 W
5 7/14/19 Texas Rangers 4927 TEX 0:77 W
To view the opposing team's stats, click on the team name.
     
 

Privacy Policy   |    Contact Us   |    User Agreement   |    Code of Conduct